createdAt,value
2019-05-05T00:01:55.561Z,14.61
2019-05-05T00:04:34.883Z,14.55
2019-05-05T00:07:07.127Z,14.48
2019-05-05T00:09:38.831Z,14.45
2019-05-05T00:12:22.838Z,14.46
2019-05-05T00:15:19.605Z,14.47
2019-05-05T00:17:51.615Z,14.38
2019-05-05T00:20:24.988Z,14.31
2019-05-05T00:22:56.403Z,14.26
2019-05-05T00:25:28.230Z,14.20
2019-05-05T00:27:59.805Z,14.18
2019-05-05T00:30:34.301Z,14.20
2019-05-05T00:33:05.780Z,14.12
2019-05-05T00:35:37.458Z,14.08
2019-05-05T00:38:09.973Z,13.97
2019-05-05T00:40:41.636Z,13.91
2019-05-05T00:43:14.742Z,13.79
2019-05-05T00:45:48.026Z,13.84
2019-05-05T00:48:40.115Z,13.75
2019-05-05T00:51:11.759Z,13.69
2019-05-05T00:53:44.918Z,13.62
2019-05-05T00:56:16.777Z,13.63
2019-05-05T00:58:55.262Z,13.54
2019-05-05T01:01:48.476Z,13.48
2019-05-05T01:04:26.682Z,13.40
2019-05-05T01:07:00.348Z,13.32
2019-05-05T01:09:34.416Z,13.32
2019-05-05T01:12:07.186Z,13.34
2019-05-05T01:14:39.385Z,13.29
2019-05-05T01:17:11.416Z,13.22
2019-05-05T01:19:45.382Z,13.24
2019-05-05T01:22:16.571Z,13.26
2019-05-05T01:24:51.372Z,13.23
2019-05-05T01:27:25.389Z,13.26
2019-05-05T01:29:57.110Z,13.34
2019-05-05T01:32:35.074Z,13.29
2019-05-05T01:35:06.586Z,13.32
2019-05-05T01:37:46.870Z,13.29
2019-05-05T01:40:54.642Z,13.29
2019-05-05T01:43:26.193Z,13.23
2019-05-05T01:46:00.407Z,13.18
2019-05-05T01:48:31.998Z,13.22
2019-05-05T01:51:04.965Z,13.18
2019-05-05T01:53:36.820Z,13.15
2019-05-05T01:56:09.060Z,13.14
2019-05-05T01:58:40.648Z,13.12
2019-05-05T02:01:12.278Z,13.16
2019-05-05T02:03:44.318Z,13.13
2019-05-05T02:06:16.096Z,13.16
2019-05-05T02:08:47.582Z,13.19
2019-05-05T02:11:19.725Z,13.21
2019-05-05T02:13:51.535Z,13.16
2019-05-05T02:16:25.371Z,13.16
2019-05-05T02:18:59.838Z,13.19
2019-05-05T02:21:32.044Z,13.15
2019-05-05T02:24:05.230Z,13.15
2019-05-05T02:26:38.246Z,13.16
2019-05-05T02:29:18.730Z,13.11
2019-05-05T02:32:07.513Z,13.16
2019-05-05T02:34:46.297Z,13.13
2019-05-05T02:37:18.236Z,13.12
2019-05-05T02:40:02.123Z,13.08
2019-05-05T02:42:27.559Z,13.06
2019-05-05T02:45:05.389Z,13.06
2019-05-05T02:47:57.129Z,13.06
2019-05-05T02:50:50.458Z,13.09
2019-05-05T02:53:06.257Z,13.09
2019-05-05T02:55:37.839Z,13.08
2019-05-05T02:58:09.489Z,13.07
2019-05-05T03:01:09.472Z,13.04
2019-05-05T03:03:43.721Z,12.94
2019-05-05T03:06:14.903Z,12.97
2019-05-05T03:08:47.823Z,12.93
2019-05-05T03:11:19.860Z,12.92
2019-05-05T03:13:54.146Z,12.86
2019-05-05T03:16:29.156Z,12.81
2019-05-05T03:19:01.041Z,12.82
2019-05-05T03:21:33.589Z,12.79
2019-05-05T03:24:05.669Z,12.87
2019-05-05T03:26:38.157Z,12.87
2019-05-05T03:29:16.597Z,12.86
2019-05-05T03:31:51.320Z,12.79
2019-05-05T03:34:23.990Z,12.86
2019-05-05T03:36:55.874Z,12.92
2019-05-05T03:39:29.440Z,12.89
2019-05-05T03:42:24.492Z,12.92
2019-05-05T03:45:06.145Z,12.98
2019-05-05T03:47:38.493Z,13.05
2019-05-05T03:50:10.836Z,13.09
2019-05-05T03:52:43.927Z,13.15
2019-05-05T03:55:15.654Z,13.22
2019-05-05T03:57:48.544Z,13.27
2019-05-05T04:00:56.264Z,13.37
2019-05-05T04:03:28.514Z,13.38
2019-05-05T04:06:01.612Z,13.39
2019-05-05T04:08:33.974Z,13.38
2019-05-05T04:11:07.913Z,13.39
2019-05-05T04:13:41.316Z,13.47
2019-05-05T04:16:36.411Z,13.51
2019-05-05T04:19:10.263Z,13.55
2019-05-05T04:21:41.994Z,13.60
2019-05-05T04:24:14.639Z,13.62
2019-05-05T04:26:46.309Z,13.72
2019-05-05T04:29:18.043Z,13.80
2019-05-05T04:31:49.923Z,13.86
2019-05-05T04:34:23.964Z,13.94
2019-05-05T04:36:56.752Z,14.00
2019-05-05T04:39:34.356Z,14.04
2019-05-05T04:42:07.500Z,14.05
2019-05-05T04:44:44.651Z,14.12
2019-05-05T04:47:23.663Z,14.24
2019-05-05T04:50:14.956Z,14.32
2019-05-05T04:52:47.320Z,14.32
2019-05-05T04:55:19.457Z,14.36
2019-05-05T04:57:51.516Z,14.50
2019-05-05T05:00:26.216Z,14.47
2019-05-05T05:03:27.274Z,14.42
2019-05-05T05:06:19.389Z,14.55
2019-05-05T05:08:53.606Z,14.52
2019-05-05T05:11:25.550Z,14.50
2019-05-05T05:13:59.970Z,14.59
2019-05-05T05:16:32.231Z,14.62
2019-05-05T05:19:05.753Z,14.72
2019-05-05T05:21:38.479Z,14.67
2019-05-05T05:24:14.692Z,14.67
2019-05-05T05:26:47.079Z,14.81
2019-05-05T05:29:19.078Z,14.81
2019-05-05T05:31:53.525Z,14.84
2019-05-05T05:34:25.797Z,14.86
2019-05-05T05:36:58.720Z,14.95
2019-05-05T05:39:54.658Z,14.97
2019-05-05T05:42:27.491Z,14.90
2019-05-05T05:45:21.200Z,14.92
2019-05-05T05:48:04.090Z,15.02
2019-05-05T05:50:54.804Z,15.03
2019-05-05T05:53:26.873Z,15.14
2019-05-05T05:55:58.664Z,15.27
2019-05-05T05:58:30.285Z,15.29
2019-05-05T06:01:04.345Z,15.46
2019-05-05T06:03:36.970Z,15.48
2019-05-05T06:06:13.694Z,15.51
2019-05-05T06:08:47.231Z,15.46
2019-05-05T06:11:20.601Z,15.59
2019-05-05T06:13:54.497Z,15.64
2019-05-05T06:16:27.124Z,15.62
2019-05-05T06:19:03.682Z,15.76
2019-05-05T06:21:36.327Z,15.78
2019-05-05T06:24:08.643Z,15.88
2019-05-05T06:26:44.547Z,15.75
2019-05-05T06:29:21.392Z,15.91
2019-05-05T06:31:55.164Z,16.03
2019-05-05T06:34:27.018Z,16.05
2019-05-05T06:36:59.199Z,16.14
2019-05-05T06:39:33.469Z,16.30
2019-05-05T06:42:28.923Z,16.52
2019-05-05T06:45:07.199Z,16.48
2019-05-05T06:47:42.060Z,16.48
2019-05-05T06:50:16.345Z,16.74
2019-05-05T06:52:49.450Z,16.55
2019-05-05T06:55:21.234Z,16.55
2019-05-05T06:57:54.002Z,16.54
2019-05-05T07:00:25.657Z,16.56
2019-05-05T07:02:57.701Z,16.57
2019-05-05T07:05:29.453Z,16.25
2019-05-05T07:08:01.288Z,16.37
2019-05-05T07:10:34.071Z,16.54
2019-05-05T07:13:05.891Z,16.50
2019-05-05T07:15:37.541Z,16.46
2019-05-05T07:18:09.289Z,16.37
2019-05-05T07:20:43.470Z,16.51
2019-05-05T07:23:16.523Z,16.72
2019-05-05T07:25:49.794Z,16.63
2019-05-05T07:28:23.509Z,16.69
2019-05-05T07:30:55.973Z,16.87
2019-05-05T07:33:27.786Z,16.92
2019-05-05T07:36:18.202Z,17.08
2019-05-05T07:38:50.887Z,17.25
2019-05-05T07:41:24.294Z,17.48
2019-05-05T07:43:56.588Z,17.48
2019-05-05T07:46:28.646Z,17.55
2019-05-05T07:49:00.362Z,17.47
2019-05-05T07:51:33.557Z,17.49
2019-05-05T07:54:05.748Z,17.58
2019-05-05T07:56:37.532Z,17.61
2019-05-05T07:59:10.169Z,17.59
2019-05-05T08:01:44.320Z,17.83
2019-05-05T08:04:15.500Z,17.76
2019-05-05T08:06:47.369Z,17.77
2019-05-05T08:09:21.883Z,17.88
2019-05-05T08:11:54.213Z,17.86
2019-05-05T08:14:26.099Z,17.62
2019-05-05T08:17:28.547Z,17.86
2019-05-05T08:20:10.065Z,18.15
2019-05-05T08:22:41.731Z,18.05
2019-05-05T08:25:37.569Z,17.93
2019-05-05T08:28:12.173Z,17.91
2019-05-05T08:30:57.887Z,18.10
2019-05-05T08:33:29.532Z,18.04
2019-05-05T08:36:01.335Z,18.14
2019-05-05T08:38:34.787Z,18.44
2019-05-05T08:41:06.530Z,18.43
2019-05-05T08:43:39.423Z,18.33
2019-05-05T08:46:14.050Z,18.36
2019-05-05T08:48:45.959Z,18.25
2019-05-05T08:51:17.652Z,18.54
2019-05-05T08:53:49.366Z,18.61
2019-05-05T08:56:21.346Z,19.00
2019-05-05T08:58:54.455Z,18.92
2019-05-05T09:01:29.084Z,18.85
2019-05-05T09:04:04.059Z,18.69
2019-05-05T09:06:37.781Z,18.93
2019-05-05T09:09:09.316Z,18.94
2019-05-05T09:11:43.588Z,19.02
2019-05-05T09:14:15.238Z,18.74
2019-05-05T09:16:47.093Z,18.59
2019-05-05T09:19:23.999Z,18.59
2019-05-05T09:21:57.691Z,18.35
2019-05-05T09:25:04.282Z,18.13
2019-05-05T09:27:57.090Z,18.13
2019-05-05T09:30:44.496Z,18.21
2019-05-05T09:33:18.310Z,18.40
2019-05-05T09:35:49.630Z,18.37
2019-05-05T09:38:23.878Z,18.62
2019-05-05T09:40:56.004Z,18.63
2019-05-05T09:43:27.582Z,18.45
2019-05-05T09:45:59.640Z,18.36
2019-05-05T09:48:33.584Z,18.19
2019-05-05T09:51:05.783Z,18.18
2019-05-05T09:53:39.043Z,17.69
2019-05-05T09:56:14.586Z,17.43
2019-05-05T09:58:46.302Z,17.31
2019-05-05T10:01:18.260Z,17.36
2019-05-05T10:03:51.381Z,17.61
2019-05-05T10:06:24.413Z,17.71
2019-05-05T10:08:56.388Z,17.60
2019-05-05T10:11:28.366Z,17.72
2019-05-05T10:14:01.594Z,18.12
2019-05-05T10:16:34.930Z,18.69
2019-05-05T10:19:06.708Z,18.91
2019-05-05T10:21:39.648Z,18.93
2019-05-05T10:24:28.643Z,18.84
2019-05-05T10:26:58.471Z,18.46
2019-05-05T10:29:29.379Z,18.05
2019-05-05T10:32:04.494Z,17.95
2019-05-05T10:34:34.564Z,18.05
2019-05-05T10:37:06.247Z,17.59
2019-05-05T10:39:46.010Z,17.72
2019-05-05T10:42:21.774Z,17.58
2019-05-05T10:44:53.828Z,17.53
2019-05-05T10:47:25.748Z,17.47
2019-05-05T10:49:57.279Z,17.12
2019-05-05T10:52:29.061Z,16.93
2019-05-05T10:55:01.090Z,16.87
2019-05-05T10:57:34.873Z,16.89
2019-05-05T11:00:12.391Z,17.16
2019-05-05T11:02:40.886Z,17.15
2019-05-05T11:05:13.723Z,16.82
2019-05-05T11:07:45.475Z,16.76
2019-05-05T11:10:21.598Z,16.53
2019-05-05T11:12:56.049Z,16.63
2019-05-05T11:15:27.726Z,16.69
2019-05-05T11:18:00.626Z,16.61
2019-05-05T11:20:34.077Z,16.63
2019-05-05T11:23:06.327Z,16.54
2019-05-05T11:25:37.956Z,16.57
2019-05-05T11:28:10.801Z,16.60
2019-05-05T11:30:47.224Z,16.73
2019-05-05T11:33:37.086Z,16.69
2019-05-05T11:36:43.868Z,16.65
2019-05-05T11:39:17.249Z,16.45
2019-05-05T11:41:54.629Z,16.28
2019-05-05T11:44:26.069Z,16.21
2019-05-05T11:46:57.763Z,15.90
2019-05-05T11:49:29.980Z,15.81
2019-05-05T11:52:04.548Z,15.83
2019-05-05T11:54:35.770Z,15.67
2019-05-05T11:57:07.428Z,15.64
2019-05-05T11:59:40.446Z,15.65
2019-05-05T12:02:21.451Z,15.76
2019-05-05T12:04:54.049Z,15.88
2019-05-05T12:07:25.734Z,16.08
2019-05-05T12:10:00.337Z,16.14
2019-05-05T12:12:33.686Z,16.07
2019-05-05T12:15:05.683Z,16.00
2019-05-05T12:17:40.317Z,15.96
2019-05-05T12:20:15.144Z,15.87
2019-05-05T12:22:48.334Z,15.91
2019-05-05T12:25:37.388Z,15.85
2019-05-05T12:28:28.960Z,15.79
2019-05-05T12:31:05.509Z,15.94
2019-05-05T12:33:37.346Z,16.33
2019-05-05T12:36:09.448Z,16.73
2019-05-05T12:38:41.294Z,17.08
2019-05-05T12:41:14.790Z,17.12
2019-05-05T12:43:46.959Z,17.13
2019-05-05T12:46:52.649Z,17.14
2019-05-05T12:49:25.433Z,17.33
2019-05-05T12:51:57.735Z,17.60
2019-05-05T12:54:30.884Z,17.59
2019-05-05T12:57:04.489Z,17.57
2019-05-05T12:59:36.654Z,17.42
2019-05-05T13:02:08.660Z,17.28
2019-05-05T13:04:40.522Z,17.26
2019-05-05T13:07:13.620Z,17.28
2019-05-05T13:09:48.478Z,17.16
2019-05-05T13:12:20.858Z,16.98
2019-05-05T13:14:54.490Z,17.11
2019-05-05T13:17:26.512Z,17.05
2019-05-05T13:20:20.842Z,17.14
2019-05-05T13:23:11.334Z,17.35
2019-05-05T13:26:07.872Z,17.26
2019-05-05T13:28:39.725Z,17.01
2019-05-05T13:31:13.778Z,16.99
2019-05-05T13:33:45.013Z,16.92
2019-05-05T13:36:18.329Z,17.05
2019-05-05T13:38:52.023Z,17.02
2019-05-05T13:41:24.463Z,17.05
2019-05-05T13:43:58.562Z,17.31
2019-05-05T13:46:33.385Z,17.18
2019-05-05T13:49:38.867Z,17.25
2019-05-05T13:52:10.705Z,17.25
2019-05-05T13:54:43.916Z,17.37
2019-05-05T13:57:15.954Z,17.54
2019-05-05T13:59:49.500Z,17.43
2019-05-05T14:02:21.194Z,17.30
2019-05-05T14:04:54.144Z,17.32
2019-05-05T14:07:29.795Z,17.29
2019-05-05T14:10:03.790Z,17.20
2019-05-05T14:12:36.355Z,17.12
2019-05-05T14:15:09.812Z,17.21
2019-05-05T14:17:43.887Z,17.30
2019-05-05T14:20:17.370Z,17.25
2019-05-05T14:22:51.232Z,17.34
2019-05-05T14:25:27.994Z,17.31
2019-05-05T14:27:59.780Z,17.20
2019-05-05T14:30:48.394Z,17.20
2019-05-05T14:33:26.194Z,17.12
2019-05-05T14:36:21.698Z,17.23
2019-05-05T14:38:57.023Z,17.35
2019-05-05T14:41:31.999Z,17.16
2019-05-05T14:44:05.255Z,17.23
2019-05-05T14:46:37.647Z,17.21
2019-05-05T14:49:10.747Z,17.18
2019-05-05T14:51:44.698Z,17.24
2019-05-05T14:54:16.764Z,17.27
2019-05-05T14:56:48.511Z,17.32
2019-05-05T14:59:20.356Z,17.34
2019-05-05T15:01:52.543Z,17.23
2019-05-05T15:04:26.902Z,17.28
2019-05-05T15:07:14.482Z,17.12
2019-05-05T15:09:48.459Z,17.00
2019-05-05T15:12:34.237Z,16.92
2019-05-05T15:15:07.278Z,16.80
2019-05-05T15:17:42.252Z,16.62
2019-05-05T15:20:14.102Z,16.53
2019-05-05T15:22:46.034Z,16.54
2019-05-05T15:25:17.995Z,16.74
2019-05-05T15:27:50.325Z,16.81
2019-05-05T15:30:26.831Z,16.90
2019-05-05T15:32:56.772Z,16.86
2019-05-05T15:35:28.612Z,16.78
2019-05-05T15:38:00.371Z,16.74
2019-05-05T15:40:33.754Z,16.67
2019-05-05T15:43:05.563Z,16.62
2019-05-05T15:45:37.260Z,16.55
2019-05-05T15:48:09.115Z,16.48
2019-05-05T15:50:40.851Z,16.33
2019-05-05T15:53:14.280Z,16.30
2019-05-05T15:55:46.475Z,16.29
2019-05-05T15:58:20.851Z,16.16
2019-05-05T16:00:53.953Z,16.14
2019-05-05T16:03:26.592Z,16.01
2019-05-05T16:05:58.358Z,15.96
2019-05-05T16:08:30.106Z,15.91
2019-05-05T16:11:03.694Z,15.97
2019-05-05T16:13:37.338Z,15.94
2019-05-05T16:16:34.144Z,15.79
2019-05-05T16:19:14.011Z,15.74
2019-05-05T16:22:00.771Z,15.80
2019-05-05T16:24:36.509Z,15.84
2019-05-05T16:27:21.107Z,15.67
2019-05-05T16:29:44.196Z,15.70
2019-05-05T16:32:21.765Z,15.66
2019-05-05T16:34:50.673Z,15.69
2019-05-05T16:37:23.557Z,15.65
2019-05-05T16:40:06.884Z,15.60
2019-05-05T16:42:38.550Z,15.55
2019-05-05T16:45:11.080Z,15.45
2019-05-05T16:47:44.258Z,15.35
2019-05-05T16:50:16.705Z,15.26
2019-05-05T16:52:54.986Z,15.23
2019-05-05T16:55:35.535Z,15.10
2019-05-05T16:58:07.607Z,15.02
2019-05-05T17:00:39.751Z,14.93
2019-05-05T17:03:13.353Z,14.93
2019-05-05T17:05:46.789Z,14.94
2019-05-05T17:08:19.239Z,14.86
2019-05-05T17:10:50.872Z,14.82
2019-05-05T17:13:44.015Z,14.81
2019-05-05T17:16:29.469Z,14.65
2019-05-05T17:19:34.942Z,14.56
2019-05-05T17:22:09.567Z,14.50
2019-05-05T17:24:41.442Z,14.37
2019-05-05T17:27:13.934Z,14.37
2019-05-05T17:29:45.695Z,14.31
2019-05-05T17:32:17.299Z,14.26
2019-05-05T17:34:48.892Z,14.23
2019-05-05T17:37:20.560Z,14.17
2019-05-05T17:40:12.964Z,14.18
2019-05-05T17:43:21.871Z,14.20
2019-05-05T17:45:59.757Z,14.25
2019-05-05T17:48:44.220Z,14.25
2019-05-05T17:51:33.047Z,14.16
2019-05-05T17:54:24.095Z,14.11
2019-05-05T17:56:55.431Z,14.03
2019-05-05T17:59:27.023Z,14.07
2019-05-05T18:01:59.664Z,14.09
2019-05-05T18:04:33.699Z,14.16
2019-05-05T18:07:14.287Z,14.16
2019-05-05T18:10:24.000Z,14.22
2019-05-05T18:13:20.390Z,14.19
2019-05-05T18:15:57.697Z,14.15
2019-05-05T18:18:29.248Z,14.28
2019-05-05T18:21:00.828Z,14.31
2019-05-05T18:23:34.176Z,14.35
2019-05-05T18:26:05.899Z,14.38
2019-05-05T18:28:37.453Z,14.45
2019-05-05T18:31:09.848Z,14.50
2019-05-05T18:33:41.467Z,14.53
2019-05-05T18:36:14.163Z,14.63
2019-05-05T18:38:46.196Z,14.69
2019-05-05T18:41:34.526Z,14.71
2019-05-05T18:44:13.381Z,14.82
2019-05-05T18:46:45.184Z,14.86
2019-05-05T18:49:16.800Z,14.98
2019-05-05T18:51:48.543Z,15.07
2019-05-05T18:54:20.204Z,15.10
2019-05-05T18:56:53.528Z,15.16
2019-05-05T18:59:25.213Z,15.19
2019-05-05T19:02:04.443Z,15.26
2019-05-05T19:04:53.716Z,15.26
2019-05-05T19:07:34.284Z,15.26
2019-05-05T19:10:06.230Z,15.25
2019-05-05T19:12:37.930Z,15.27
2019-05-05T19:15:10.143Z,15.21
2019-05-05T19:17:41.887Z,15.18
2019-05-05T19:20:24.097Z,15.20
2019-05-05T19:23:02.944Z,15.25
2019-05-05T19:25:35.778Z,15.27
2019-05-05T19:28:07.699Z,15.31
2019-05-05T19:30:39.239Z,15.33
2019-05-05T19:33:15.518Z,15.30
2019-05-05T19:35:47.441Z,15.29
2019-05-05T19:38:23.733Z,15.20
2019-05-05T19:40:56.593Z,15.14
2019-05-05T19:43:28.217Z,15.16
2019-05-05T19:45:59.878Z,15.18
2019-05-05T19:48:31.452Z,15.24
2019-05-05T19:51:08.268Z,15.31
2019-05-05T19:53:39.882Z,15.37
2019-05-05T19:56:13.416Z,15.48
2019-05-05T19:58:58.194Z,15.62
2019-05-05T20:01:18.175Z,15.70
2019-05-05T20:03:49.923Z,15.78
2019-05-05T20:06:23.712Z,15.83
2019-05-05T20:08:55.482Z,15.89
2019-05-05T20:11:27.152Z,15.87
2019-05-05T20:14:09.611Z,15.77
2019-05-05T20:17:00.170Z,15.61
2019-05-05T20:19:35.366Z,15.51
2019-05-05T20:22:06.975Z,15.45
2019-05-05T20:24:39.055Z,15.38
2019-05-05T20:27:10.643Z,15.28
2019-05-05T20:29:42.197Z,15.20
2019-05-05T20:32:14.399Z,15.10
2019-05-05T20:35:04.137Z,15.12
2019-05-05T20:37:43.531Z,15.10
2019-05-05T20:40:16.357Z,15.11
2019-05-05T20:42:49.757Z,15.11
2019-05-05T20:45:24.373Z,15.12
2019-05-05T20:47:56.108Z,15.18
2019-05-05T20:50:27.488Z,15.24
2019-05-05T20:52:59.597Z,15.18
2019-05-05T20:55:31.216Z,15.03
2019-05-05T20:58:04.680Z,14.86
2019-05-05T21:00:44.215Z,14.76
2019-05-05T21:03:15.754Z,14.73
2019-05-05T21:05:48.785Z,14.62
2019-05-05T21:08:20.635Z,14.60
2019-05-05T21:10:53.714Z,14.69
2019-05-05T21:13:25.291Z,14.68
2019-05-05T21:15:56.734Z,14.70
2019-05-05T21:18:28.178Z,14.73
2019-05-05T21:21:01.647Z,14.80
2019-05-05T21:23:47.868Z,14.84
2019-05-05T21:26:25.154Z,14.86
2019-05-05T21:28:56.780Z,14.86
2019-05-05T21:31:28.252Z,14.88
2019-05-05T21:34:00.880Z,14.89
2019-05-05T21:36:33.635Z,14.87
2019-05-05T21:39:06.769Z,14.89
2019-05-05T21:41:39.432Z,14.87
2019-05-05T21:44:11.091Z,14.92
2019-05-05T21:46:43.786Z,14.94
2019-05-05T21:49:15.436Z,14.93
2019-05-05T21:52:07.857Z,14.99
2019-05-05T21:55:06.791Z,15.07
2019-05-05T21:58:15.054Z,15.01
2019-05-05T22:01:06.335Z,14.98
2019-05-05T22:03:38.759Z,14.98
2019-05-05T22:06:10.691Z,14.94
2019-05-05T22:08:42.681Z,14.99
2019-05-05T22:11:14.804Z,14.95
2019-05-05T22:13:48.485Z,14.95
2019-05-05T22:16:20.154Z,14.93
2019-05-05T22:18:53.876Z,14.85
2019-05-05T22:21:35.640Z,14.85
2019-05-05T22:24:19.474Z,14.88
2019-05-05T22:26:54.162Z,14.90
2019-05-05T22:29:25.579Z,14.90
2019-05-05T22:31:57.032Z,14.91
2019-05-05T22:34:28.677Z,14.97
2019-05-05T22:37:00.276Z,14.95
2019-05-05T22:39:33.808Z,14.93
2019-05-05T22:42:05.218Z,14.87
2019-05-05T22:44:36.710Z,14.86
2019-05-05T22:47:08.238Z,14.92
2019-05-05T22:49:39.896Z,15.02
2019-05-05T22:52:19.290Z,15.06
2019-05-05T22:54:50.840Z,15.08
2019-05-05T22:57:24.615Z,15.12
2019-05-05T22:59:56.006Z,15.14
2019-05-05T23:02:30.744Z,15.16
2019-05-05T23:05:07.440Z,15.12
2019-05-05T23:07:39.138Z,15.15
2019-05-05T23:10:10.644Z,15.17
2019-05-05T23:12:43.957Z,15.11
2019-05-05T23:15:17.306Z,15.06
2019-05-05T23:18:13.665Z,15.08
2019-05-05T23:21:07.035Z,15.13
2019-05-05T23:23:56.261Z,15.08
2019-05-05T23:26:29.353Z,15.13
2019-05-05T23:29:01.468Z,15.17
2019-05-05T23:31:33.611Z,15.13
2019-05-05T23:34:06.425Z,15.06
2019-05-05T23:36:38.640Z,15.05
2019-05-05T23:39:10.890Z,15.07
2019-05-05T23:41:42.656Z,15.07
2019-05-05T23:44:14.444Z,15.01
2019-05-05T23:46:46.704Z,14.98
2019-05-05T23:49:18.339Z,14.96
2019-05-05T23:51:49.894Z,14.96
2019-05-05T23:54:21.699Z,14.94
2019-05-05T23:56:53.867Z,14.95
2019-05-05T23:59:25.702Z,14.93
